Latest Weather Observations for Noarlunga

IDS60901

Issued at 11:41 pm CST Tuesday 11 May 2021 (issued every 10 minutes, with the page automatically refreshed every 10 minutes)

About weather observations | Map of Adelaide area stations | Latest observations for Adelaide area | Other Formats
Station Details ID: 023885 Name: NOARLUNGA Lat: -35.16 Lon: 138.51 Height: 55.0 m
Data from the previous 72 hours. | See also: Recent months at Noarlunga
Date/Time
CST
Temp
°C
App
Temp
°C
Dew
Point
°C
Rel
Hum
%
Delta-T
°C
Wind Press
QNH
hPa
Press
MSL
hPa
Rain since
9am
mm
Dir  Spd
km/h
Gust
km/h
Spd
kts
Gust
kts
11/11:30pm 11.3 9.1 6.2 71 2.4 ESE 7 11 4 6 - - 0.4
11/11:00pm 11.5 9.7 7.2 75 2.1 SSE 6 7 3 4 - - 0.4
11/10:30pm 11.6 10.4 8.1 79 1.7 S 4 7 2 4 - - 0.4
11/10:00pm 11.3 10.8 8.0 80 1.6 CALM 0 0 0 0 - - 0.4
11/09:30pm 11.4 11.1 8.6 83 1.4 CALM 0 0 0 0 - - 0.4
11/09:00pm 11.4 11.0 8.3 81 1.5 CALM 0 0 0 0 - - 0.4
11/08:30pm 11.3 10.8 8.0 80 1.6 CALM 0 0 0 0 - - 0.4
11/08:00pm 11.0 9.8 8.2 83 1.4 ESE 4 7 2 4 - - 0.4
11/07:30pm 11.2 9.5 8.2 82 1.5 SSE 7 9 4 5 - - 0.4
11/07:00pm 11.6 9.1 8.1 79 1.7 SE 11 15 6 8 - - 0.4
11/06:30pm 12.0 9.5 8.1 77 1.9 SE 11 17 6 9 - - 0.4
11/06:00pm 12.5 9.2 8.2 75 2.1 SE 15 22 8 12 - - 0.4
11/05:30pm 13.0 9.2 7.7 70 2.6 SSE 17 24 9 13 - - 0.4
11/05:00pm 13.2 10.1 7.4 68 2.8 SE 13 20 7 11 - - 0.4
11/04:30pm 13.3 9.9 7.5 68 2.8 SE 15 20 8 11 - - 0.4
11/04:00pm 13.5 9.8 8.1 70 2.7 SE 17 24 9 13 - - 0.4
11/03:30pm 13.6 9.4 8.2 70 2.7 SE 20 28 11 15 - - 0.4
11/03:00pm 14.2 9.8 8.8 70 2.7 SE 22 37 12 20 - - 0.4
11/02:30pm 14.0 9.9 8.6 70 2.7 SE 20 30 11 16 - - 0.4
11/02:00pm 15.0 11.3 9.4 69 2.9 SSE 19 28 10 15 - - 0.4
11/01:30pm 13.8 10.4 9.3 74 2.3 SE 17 24 9 13 - - 0.4
11/01:00pm 14.6 12.8 10.8 78 2.0 SE 11 17 6 9 - - 0.4
11/12:30pm 14.9 11.7 10.1 73 2.5 SSE 17 26 9 14 - - 0.4
11/12:00pm 13.8 9.9 9.6 76 2.2 SE 20 30 11 16 - - 0.4
11/11:30am 13.3 10.6 10.3 82 1.6 SE 15 22 8 12 - - 0.4
11/11:00am 13.3 11.4 10.5 83 1.5 SE 11 17 6 9 - - 0.4
11/10:30am 13.0 11.6 10.9 87 1.1 SE 9 17 5 9 - - 0.4
11/10:00am 13.1 11.6 10.5 84 1.4 SSE 9 17 5 9 - - 0.4
11/09:30am 13.3 12.2 10.7 84 1.4 SSE 7 11 4 6 - - 0.0
11/09:00am 13.1 11.0 9.9 81 1.6 SSE 11 15 6 8 - - 0.6
11/08:30am 12.6 10.1 9.6 82 1.5 SSE 13 19 7 10 - - 0.6
11/08:00am 11.6 9.4 9.2 85 1.2 SSE 11 15 6 8 - - 0.6
11/07:30am 11.1 9.7 8.7 85 1.2 SE 6 6 3 3 - - 0.6
11/07:00am 11.2 9.2 8.8 85 1.2 SSE 9 15 5 8 - - 0.6
11/06:30am 10.7 9.7 8.8 88 0.9 SSE 4 7 2 4 - - 0.6
11/06:00am 10.6 8.9 8.5 87 1.0 SSE 7 9 4 5 - - 0.6
11/05:30am 11.2 9.2 8.8 85 1.2 SE 9 11 5 6 - - 0.6
11/05:00am 12.2 10.1 8.1 76 2.0 S 9 19 5 10 - - 0.6
11/04:30am 12.4 9.4 7.9 74 2.2 SSE 13 28 7 15 - - 0.6
11/04:00am 12.5 10.2 7.6 72 2.4 SSW 9 20 5 11 - - 0.6
11/03:30am 12.9 9.9 6.0 63 3.3 S 11 17 6 9 - - 0.6
11/03:00am 12.8 10.2 5.9 63 3.3 S 9 15 5 8 - - 0.6
11/02:30am 12.6 10.6 7.3 70 2.6 S 7 13 4 7 - - 0.6
11/02:00am 12.5 10.3 7.8 73 2.3 S 9 13 5 7 - - 0.6
11/01:30am 12.4 11.1 7.7 73 2.3 S 4 6 2 3 - - 0.6
11/01:00am 12.1 10.5 7.8 75 2.1 S 6 7 3 4 - - 0.6
11/12:30am 12.2 10.9 7.5 73 2.3 S 4 6 2 3 - - 0.6
11/12:00am 12.3 10.9 7.2 71 2.5 S 4 4 2 2 - - 0.6
 
Date/Time
CST
Temp
°C
App
Temp
°C
Dew
Point
°C
Rel
Hum
%
Delta-T
°C
Wind Press
QNH
hPa
Press
MSL
hPa
Rain since
9am
mm
Dir  Spd
km/h
Gust
km/h
Spd
kts
Gust
kts
10/11:30pm 12.5 10.5 7.0 69 2.7 S 7 11 4 6 - - 0.6
10/11:00pm 12.8 10.0 6.8 67 2.9 S 11 22 6 12 - - 0.6
10/10:30pm 12.9 10.4 6.7 66 3.0 S 9 15 5 8 - - 0.6
10/10:00pm 13.0 10.6 7.0 67 2.9 S 9 13 5 7 - - 0.6
10/09:30pm 13.0 10.0 7.9 71 2.5 S 13 19 7 10 - - 0.6
10/09:00pm 13.2 10.7 6.5 64 3.2 SSW 9 19 5 10 - - 0.6
10/08:30pm 13.1 10.4 5.5 60 3.6 S 9 15 5 8 - - 0.6
10/08:00pm 13.2 10.9 5.6 60 3.6 SSW 7 15 4 8 - - 0.6
10/07:30pm 13.3 9.7 5.2 58 3.8 S 13 19 7 10 - - 0.6
10/07:00pm 12.9 9.2 8.0 72 2.4 S 17 24 9 13 - - 0.6
10/06:30pm 12.7 8.1 8.0 73 2.3 S 22 33 12 18 - - 0.6
10/06:00pm 13.4 10.8 7.8 69 2.8 S 11 17 6 9 - - 0.6
10/05:30pm 13.5 9.4 7.9 69 2.8 SSW 19 30 10 16 - - 0.6
10/05:00pm 14.0 10.4 6.6 61 3.6 SSW 15 28 8 15 - - 0.6
10/04:30pm 14.1 9.9 8.3 68 2.9 SSW 20 35 11 19 - - 0.6
10/04:00pm 14.4 10.3 8.6 68 2.9 SSW 20 33 11 18 - - 0.6
10/03:30pm 14.1 10.9 10.1 77 2.1 SSW 17 30 9 16 - - 0.6
10/03:00pm 14.8 10.6 9.6 71 2.7 S 22 37 12 20 - - 0.4
10/02:38pm 15.3 10.0 9.7 69 2.9 SSW 28 48 15 26 - - 0.4
10/02:30pm 15.3 11.3 10.5 73 2.5 SW 22 35 12 19 - - 0.4
10/02:00pm 14.8 10.9 10.8 77 2.1 SW 22 43 12 23 - - 0.4
10/01:30pm 14.7 10.9 9.9 73 2.5 SSW 20 37 11 20 - - 0.4
10/01:00pm 15.4 11.9 10.2 71 2.7 SW 19 28 10 15 - - 0.4
10/12:30pm 15.5 11.8 10.1 70 2.8 SW 20 39 11 21 - - 0.4
10/12:00pm 16.0 12.2 11.2 73 2.6 SSW 22 41 12 22 - - 0.2
10/11:30am 15.2 10.4 11.6 79 1.9 SW 28 43 15 23 - - 0.2
10/11:00am 14.2 10.7 12.1 87 1.1 SW 22 39 12 21 - - 0.2
10/10:30am 13.7 10.3 12.4 92 0.7 SW 22 35 12 19 - - 0.2
10/10:00am 15.4 10.0 10.8 74 2.4 WSW 30 48 16 26 - - 0.0
10/09:52am 15.4 10.3 10.6 73 2.5 SW 28 46 15 25 - - 0.0
10/09:30am 15.1 10.1 10.9 76 2.2 WSW 28 43 15 23 - - 0.0
10/09:00am 14.7 10.5 11.1 79 1.9 SW 24 39 13 21 - - 2.6
10/08:30am 15.0 9.5 10.6 75 2.3 WSW 30 54 16 29 - - 2.6
10/08:28am 15.1 10.0 10.5 74 2.4 WSW 28 46 15 25 - - 2.6
10/08:00am 15.3 9.1 9.4 68 3.0 WSW 32 46 17 25 - - 2.6
10/07:35am 15.4 9.7 9.7 69 3.0 WSW 30 50 16 27 - - 2.6
10/07:30am 15.5 10.8 10.7 73 2.5 WSW 26 43 14 23 - - 2.6
10/07:00am 15.4 12.9 14.1 92 0.7 WNW 20 32 11 17 - - 2.6
10/06:31am 14.7 9.0 13.1 90 0.9 NW 35 61 19 33 - - 2.4
10/06:30am 15.0 9.6 14.0 94 0.6 NW 35 57 19 31 - - 2.4
10/06:00am 16.0 11.2 14.5 91 0.9 NW 33 57 18 31 - - 0.0
10/05:30am 16.2 11.2 14.0 87 1.2 NW 33 56 18 30 - - 0.0
10/05:00am 15.9 10.8 13.6 86 1.3 NW 33 54 18 29 - - 0.0
10/04:30am 15.7 10.1 13.4 86 1.3 NNW 35 61 19 33 - - 0.0
10/04:00am 15.9 11.4 12.6 81 1.8 NNW 28 50 15 27 - - 0.0
10/03:35am 15.7 11.3 12.8 83 1.6 NNW 28 48 15 26 - - 0.0
10/03:30am 15.8 10.9 12.7 82 1.7 NNW 30 48 16 26 - - 0.0
10/03:24am 16.0 11.5 12.6 80 1.9 NW 28 46 15 25 - - 0.0
10/03:00am 16.0 11.5 12.6 80 1.9 NNW 28 39 15 21 - - 0.0
10/02:30am 15.9 12.6 12.8 82 1.7 NNW 22 39 12 21 - - 0.0
10/02:00am 16.0 11.4 12.4 79 2.0 NNW 28 44 15 24 - - 0.0
10/01:30am 16.0 12.4 11.8 76 2.3 NNW 22 37 12 20 - - 0.0
10/01:00am 15.8 12.2 12.0 78 2.1 NNW 22 32 12 17 - - 0.0
10/12:30am 15.9 12.5 11.3 74 2.5 NNW 20 37 11 20 - - 0.0
10/12:00am 16.2 13.0 12.0 76 2.3 NNW 20 32 11 17 - - 0.0
 
Date/Time
CST
Temp
°C
App
Temp
°C
Dew
Point
°C
Rel
Hum
%
Delta-T
°C
Wind Press
QNH
hPa
Press
MSL
hPa
Rain since
9am
mm
Dir  Spd
km/h
Gust
km/h
Spd
kts
Gust
kts
09/11:30pm 16.2 12.2 10.5 69 3.0 NNW 22 37 12 20 - - 0.0
09/11:00pm 16.0 12.5 10.1 68 3.1 NW 19 26 10 14 - - 0.0
09/10:30pm 16.0 12.5 10.3 69 3.0 NNW 19 30 10 16 - - 0.0
09/10:00pm 15.8 12.9 9.7 67 3.2 NW 15 28 8 15 - - 0.0
09/09:30pm 15.8 13.0 9.9 68 3.1 NW 15 22 8 12 - - 0.0
09/09:00pm 15.7 13.0 10.2 70 2.9 NW 15 20 8 11 - - 0.0
09/08:30pm 15.6 13.6 10.2 70 2.8 NW 11 17 6 9 - - 0.0
09/08:00pm 15.4 13.8 10.2 71 2.7 NNW 9 17 5 9 - - 0.0
09/07:30pm 15.4 13.8 10.2 71 2.7 NW 9 17 5 9 - - 0.0
09/07:00pm 15.7 13.6 9.8 68 3.1 NW 11 17 6 9 - - 0.0
09/06:30pm 16.0 13.2 9.9 67 3.2 NW 15 28 8 15 - - 0.0
09/06:00pm 15.7 14.6 10.7 72 2.7 NW 7 13 4 7 - - 0.0
09/05:30pm 16.0 15.1 11.2 73 2.6 NW 7 13 4 7 - - 0.0
09/05:00pm 16.6 15.7 11.5 72 2.8 NW 7 9 4 5 - - 0.0
09/04:30pm 17.2 15.8 11.0 67 3.3 WNW 9 13 5 7 - - 0.0
09/04:00pm 17.4 16.0 11.0 66 3.5 W 9 13 5 7 - - 0.0
09/03:30pm 17.3 16.3 12.2 72 2.8 W 9 15 5 8 - - 0.0
09/03:00pm 17.4 15.8 12.9 75 2.5 W 13 19 7 10 - - 0.0
09/02:30pm 16.3 15.6 13.2 82 1.7 W 9 13 5 7 - - 0.0
09/02:00pm 17.7 15.3 12.8 73 2.7 NW 17 26 9 14 - - 0.0
09/01:30pm 18.1 16.5 12.8 71 3.0 NW 13 22 7 12 - - 0.0
09/01:00pm 17.0 15.3 12.5 75 2.5 NW 13 20 7 11 - - 0.0
09/12:30pm 17.4 15.2 12.1 71 2.9 WNW 15 20 8 11 - - 0.0
09/12:00pm 17.5 15.3 12.0 70 3.0 NW 15 24 8 13 - - 0.0
09/11:30am 16.7 14.6 12.5 76 2.3 NNW 15 24 8 13 - - 0.0
09/11:00am 16.6 15.2 13.5 82 1.7 NNW 13 19 7 10 - - 0.0
09/10:30am 15.9 15.1 13.9 88 1.1 NNW 11 17 6 9 - - 0.0
09/10:00am 15.6 14.7 13.8 89 1.0 NNW 11 15 6 8 - - 0.0
09/09:30am 15.5 14.5 13.5 88 1.1 NNW 11 17 6 9 - - 0.0
09/09:00am 15.0 14.5 13.9 93 0.6 N 9 13 5 7 - - 9.6
09/08:30am 14.1 14.0 13.9 99 0.1 N 7 13 4 7 - - 9.6
09/08:00am 12.9 12.4 12.7 99 0.1 NNE 7 11 4 6 - - 9.6
09/07:30am 12.8 11.9 12.6 99 0.1 NNE 9 15 5 8 - - 9.6
09/07:00am 12.7 12.2 12.5 99 0.1 NNE 7 11 4 6 - - 9.6
09/06:30am 12.7 11.8 12.5 99 0.1 NNE 9 15 5 8 - - 9.6
09/06:00am 12.5 11.9 12.3 99 0.1 NNE 7 13 4 7 - - 9.6
09/05:30am 12.4 11.7 12.1 98 0.2 NE 7 9 4 5 - - 9.6
09/05:00am 12.6 12.8 12.0 96 0.3 NNE 2 6 1 3 - - 9.6
09/04:30am 13.2 12.7 12.6 96 0.3 NNE 7 11 4 6 - - 9.6
09/04:00am 13.1 12.7 12.5 96 0.3 NE 6 9 3 5 - - 9.6
09/03:30am 12.9 12.5 12.3 96 0.3 NE 6 7 3 4 - - 9.6
09/03:00am 12.9 12.3 12.3 96 0.3 NE 7 9 4 5 - - 9.6
09/02:30am 12.7 12.0 11.9 95 0.4 ENE 7 9 4 5 - - 9.6
09/02:00am 12.4 11.5 11.5 94 0.5 NE 7 9 4 5 - - 9.6
09/01:30am 12.0 11.2 11.2 95 0.4 NE 6 9 3 5 - - 9.6
09/01:00am 12.0 11.3 11.4 96 0.3 NE 6 7 3 4 - - 9.6
09/12:30am 12.4 11.6 11.6 95 0.4 NE 7 9 4 5 - - 9.6
09/12:00am 12.7 12.2 11.9 95 0.4 ENE 6 7 3 4 - - 9.6

Latest Capital City Observations: Canberra | Sydney | Melbourne | Brisbane | Adelaide | Perth | Hobart | Darwin

Other formats

Comma delimited format used in spreadsheet applications
http://www.bom.gov.au/fwo/IDS60901/IDS60901.94808.axf

JavaScript Object Notation format (JSON) in row-major order
http://www.bom.gov.au/fwo/IDS60901/IDS60901.94808.json

Data quality

Most of these data are generated automatically and are frequently updated. Quality checks on data are not normally performed. It is possible for incorrect values to appear. Refer to information at About Latest Weather Observations and please check the disclaimer before using these data.